sensor_id;sensor_type;location;lat;lon;timestamp;pressure;altitude;pressure_sealevel;temperature;humidity
51237;BME280;37312;47.550;18.818;2022-09-09T00:02:05;98867.63;;;15.77;100.00
51237;BME280;37312;47.550;18.818;2022-09-09T00:04:35;98859.97;;;15.69;100.00
51237;BME280;37312;47.550;18.818;2022-09-09T00:07:12;98850.22;;;15.62;100.00
51237;BME280;37312;47.550;18.818;2022-09-09T00:12:36;98848.31;;;15.63;100.00
51237;BME280;37312;47.550;18.818;2022-09-09T00:15:08;98844.00;;;15.67;100.00
51237;BME280;37312;47.550;18.818;2022-09-09T00:22:53;98846.16;;;15.65;100.00
51237;BME280;37312;47.550;18.818;2022-09-09T00:25:29;98841.78;;;15.64;100.00
51237;BME280;37312;47.550;18.818;2022-09-09T00:27:57;98835.03;;;15.56;100.00
51237;BME280;37312;47.550;18.818;2022-09-09T00:30:26;98838.28;;;15.53;100.00
51237;BME280;37312;47.550;18.818;2022-09-09T00:33:00;98836.41;;;15.54;100.00
51237;BME280;37312;47.550;18.818;2022-09-09T00:35:35;98835.03;;;15.56;100.00
51237;BME280;37312;47.550;18.818;2022-09-09T00:38:10;98842.06;;;15.57;100.00
51237;BME280;37312;47.550;18.818;2022-09-09T00:51:49;98871.66;;;15.64;100.00
51237;BME280;37312;47.550;18.818;2022-09-09T00:54:27;98862.72;;;15.63;100.00
51237;BME280;37312;47.550;18.818;2022-09-09T00:59:56;98871.13;;;15.62;100.00
51237;BME280;37312;47.550;18.818;2022-09-09T01:05:07;98875.47;;;15.58;100.00
51237;BME280;37312;47.550;18.818;2022-09-09T01:07:36;98886.84;;;15.60;100.00
51237;BME280;37312;47.550;18.818;2022-09-09T01:10:03;98886.31;;;15.58;100.00
51237;BME280;37312;47.550;18.818;2022-09-09T01:12:40;98883.09;;;15.56;100.00
51237;BME280;37312;47.550;18.818;2022-09-09T01:15:13;98881.19;;;15.56;100.00
51237;BME280;37312;47.550;18.818;2022-09-09T01:20:15;98882.00;;;15.52;100.00
51237;BME280;37312;47.550;18.818;2022-09-09T01:26:14;98882.50;;;15.49;100.00
51237;BME280;37312;47.550;18.818;2022-09-09T01:28:44;98887.94;;;15.49;100.00
51237;BME280;37312;47.550;18.818;2022-09-09T01:31:15;98891.22;;;15.46;100.00
51237;BME280;37312;47.550;18.818;2022-09-09T01:33:42;98890.13;;;15.47;100.00
51237;BME280;37312;47.550;18.818;2022-09-09T01:38:34;98892.56;;;15.48;100.00
51237;BME280;37312;47.550;18.818;2022-09-09T01:41:01;98897.19;;;15.48;100.00
51237;BME280;37312;47.550;18.818;2022-09-09T01:43:28;98900.97;;;15.47;100.00
51237;BME280;37312;47.550;18.818;2022-09-09T01:45:56;98900.16;;;15.46;100.00
51237;BME280;37312;47.550;18.818;2022-09-09T01:48:25;98897.44;;;15.46;100.00
51237;BME280;37312;47.550;18.818;2022-09-09T01:50:51;98899.06;;;15.42;100.00
51237;BME280;37312;47.550;18.818;2022-09-09T01:53:18;98898.56;;;15.40;100.00
51237;BME280;37312;47.550;18.818;2022-09-09T01:56:00;98898.00;;;15.38;100.00
51237;BME280;37312;47.550;18.818;2022-09-09T02:04:21;98905.84;;;15.39;100.00
51237;BME280;37312;47.550;18.818;2022-09-09T02:06:51;98903.44;;;15.43;100.00
51237;BME280;37312;47.550;18.818;2022-09-09T02:09:23;98908.59;;;15.45;100.00
51237;BME280;37312;47.550;18.818;2022-09-09T02:11:57;98912.94;;;15.40;100.00
51237;BME280;37312;47.550;18.818;2022-09-09T02:14:30;98905.03;;;15.44;100.00
51237;BME280;37312;47.550;18.818;2022-09-09T02:17:19;98912.38;;;15.38;100.00
51237;BME280;37312;47.550;18.818;2022-09-09T02:19:50;98903.94;;;15.35;100.00
51237;BME280;37312;47.550;18.818;2022-09-09T02:22:19;98905.31;;;15.37;100.00
51237;BME280;37312;47.550;18.818;2022-09-09T02:24:49;98911.03;;;15.36;100.00
51237;BME280;37312;47.550;18.818;2022-09-09T02:27:18;98910.47;;;15.39;100.00
51237;BME280;37312;47.550;18.818;2022-09-09T02:29:45;98915.09;;;15.33;100.00
51237;BME280;37312;47.550;18.818;2022-09-09T02:32:19;98910.47;;;15.29;100.00
51237;BME280;37312;47.550;18.818;2022-09-09T02:34:50;98910.19;;;15.30;100.00
51237;BME280;37312;47.550;18.818;2022-09-09T02:37:22;98909.94;;;15.32;100.00
51237;BME280;37312;47.550;18.818;2022-09-09T02:39:50;98912.34;;;15.28;100.00
51237;BME280;37312;47.550;18.818;2022-09-09T02:42:16;98901.78;;;15.27;100.00
51237;BME280;37312;47.550;18.818;2022-09-09T02:44:42;98914.25;;;15.28;100.00
51237;BME280;37312;47.550;18.818;2022-09-09T02:55:41;98910.72;;;15.22;100.00
51237;BME280;37312;47.550;18.818;2022-09-09T02:58:10;98908.84;;;15.22;100.00
51237;BME280;37312;47.550;18.818;2022-09-09T03:00:39;98903.13;;;15.19;100.00
51237;BME280;37312;47.550;18.818;2022-09-09T03:03:06;98901.75;;;15.16;100.00
51237;BME280;37312;47.550;18.818;2022-09-09T03:05:34;98897.69;;;15.14;100.00
51237;BME280;37312;47.550;18.818;2022-09-09T03:08:01;98906.09;;;15.12;100.00
51237;BME280;37312;47.550;18.818;2022-09-09T03:10:27;98896.06;;;15.13;100.00
51237;BME280;37312;47.550;18.818;2022-09-09T03:12:54;98894.69;;;15.10;100.00
51237;BME280;37312;47.550;18.818;2022-09-09T03:15:21;98905.81;;;15.09;100.00
51237;BME280;37312;47.550;18.818;2022-09-09T03:17:46;98902.56;;;15.07;100.00
51237;BME280;37312;47.550;18.818;2022-09-09T03:20:13;98907.69;;;15.03;100.00
51237;BME280;37312;47.550;18.818;2022-09-09T03:22:39;98908.50;;;14.98;100.00
51237;BME280;37312;47.550;18.818;2022-09-09T03:25:05;98911.75;;;14.95;100.00
51237;BME280;37312;47.550;18.818;2022-09-09T03:27:31;98901.16;;;14.94;100.00
51237;BME280;37312;47.550;18.818;2022-09-09T03:29:58;98905.47;;;14.90;100.00
51237;BME280;37312;47.550;18.818;2022-09-09T03:32:24;98897.34;;;14.90;100.00
51237;BME280;37312;47.550;18.818;2022-09-09T03:34:52;98899.00;;;14.86;100.00
51237;BME280;37312;47.550;18.818;2022-09-09T03:37:19;98910.09;;;14.84;100.00
51237;BME280;37312;47.550;18.818;2022-09-09T03:39:45;98913.88;;;14.83;100.00
51237;BME280;37312;47.550;18.818;2022-09-09T03:42:14;98910.59;;;14.81;100.00
51237;BME280;37312;47.550;18.818;2022-09-09T03:44:45;98912.25;;;14.82;100.00
51237;BME280;37312;47.550;18.818;2022-09-09T03:47:20;98919.28;;;14.78;100.00
51237;BME280;37312;47.550;18.818;2022-09-09T03:49:47;98924.97;;;14.76;100.00
51237;BME280;37312;47.550;18.818;2022-09-09T03:52:14;98921.72;;;14.74;100.00
51237;BME280;37312;47.550;18.818;2022-09-09T03:54:41;98927.97;;;14.75;100.00
51237;BME280;37312;47.550;18.818;2022-09-09T03:57:11;98930.66;;;14.75;100.00
51237;BME280;37312;47.550;18.818;2022-09-09T03:59:37;98936.09;;;14.75;100.00
51237;BME280;37312;47.550;18.818;2022-09-09T04:02:04;98936.59;;;14.72;100.00
51237;BME280;37312;47.550;18.818;2022-09-09T04:04:29;98939.84;;;14.69;100.00
51237;BME280;37312;47.550;18.818;2022-09-09T04:06:55;98945.50;;;14.62;100.00
51237;BME280;37312;47.550;18.818;2022-09-09T04:09:22;98938.16;;;14.57;100.00
51237;BME280;37312;47.550;18.818;2022-09-09T04:11:49;98938.16;;;14.57;100.00
51237;BME280;37312;47.550;18.818;2022-09-09T04:14:15;98938.12;;;14.52;100.00
51237;BME280;37312;47.550;18.818;2022-09-09T04:16:40;98931.06;;;14.51;100.00
51237;BME280;37312;47.550;18.818;2022-09-09T04:19:11;98927.28;;;14.52;100.00
51237;BME280;37312;47.550;18.818;2022-09-09T04:21:40;98929.44;;;14.50;100.00
51237;BME280;37312;47.550;18.818;2022-09-09T04:24:07;98923.72;;;14.47;100.00
51237;BME280;37312;47.550;18.818;2022-09-09T04:26:34;98935.41;;;14.52;100.00
51237;BME280;37312;47.550;18.818;2022-09-09T04:29:03;98932.16;;;14.50;100.00
51237;BME280;37312;47.550;18.818;2022-09-09T04:31:30;98931.34;;;14.50;100.00
51237;BME280;37312;47.550;18.818;2022-09-09T04:33:56;98929.13;;;14.47;100.00
51237;BME280;37312;47.550;18.818;2022-09-09T04:36:22;98926.19;;;14.48;100.00
51237;BME280;37312;47.550;18.818;2022-09-09T04:38:48;98922.38;;;14.49;100.00
51237;BME280;37312;47.550;18.818;2022-09-09T04:41:15;98928.34;;;14.51;100.00
51237;BME280;37312;47.550;18.818;2022-09-09T04:43:42;98924.28;;;14.54;100.00
51237;BME280;37312;47.550;18.818;2022-09-09T04:46:08;98912.72;;;14.58;100.00
51237;BME280;37312;47.550;18.818;2022-09-09T04:48:34;98906.75;;;14.62;100.00
51237;BME280;37312;47.550;18.818;2022-09-09T04:51:01;98911.37;;;14.61;100.00
51237;BME280;37312;47.550;18.818;2022-09-09T04:53:27;98917.06;;;14.65;100.00
51237;BME280;37312;47.550;18.818;2022-09-09T04:56:04;98913.56;;;14.69;100.00
51237;BME280;37312;47.550;18.818;2022-09-09T04:58:30;98922.78;;;14.73;100.00
51237;BME280;37312;47.550;18.818;2022-09-09T05:01:02;98914.94;;;14.77;100.00
51237;BME280;37312;47.550;18.818;2022-09-09T05:03:28;98915.50;;;14.79;100.00
51237;BME280;37312;47.550;18.818;2022-09-09T05:05:54;98923.09;;;14.82;100.00
51237;BME280;37312;47.550;18.818;2022-09-09T05:08:22;98924.72;;;14.83;100.00
51237;BME280;37312;47.550;18.818;2022-09-09T05:10:48;98929.62;;;14.91;100.00
51237;BME280;37312;47.550;18.818;2022-09-09T05:13:14;98932.34;;;14.91;100.00
51237;BME280;37312;47.550;18.818;2022-09-09T05:15:40;98925.56;;;14.94;100.00
51237;BME280;37312;47.550;18.818;2022-09-09T05:18:08;98930.75;;;15.00;100.00
51237;BME280;37312;47.550;18.818;2022-09-09T05:20:34;98933.75;;;15.04;100.00
51237;BME280;37312;47.550;18.818;2022-09-09T05:23:00;98933.50;;;15.11;100.00
51237;BME280;37312;47.550;18.818;2022-09-09T05:25:25;98934.06;;;15.18;100.00
51237;BME280;37312;47.550;18.818;2022-09-09T05:27:51;98932.44;;;15.27;100.00
51237;BME280;37312;47.550;18.818;2022-09-09T05:30:19;98931.91;;;15.35;100.00
51237;BME280;37312;47.550;18.818;2022-09-09T05:32:45;98931.63;;;15.42;100.00
51237;BME280;37312;47.550;18.818;2022-09-09T05:35:12;98931.91;;;15.51;100.00
51237;BME280;37312;47.550;18.818;2022-09-09T05:37:39;98934.09;;;15.54;100.00
51237;BME280;37312;47.550;18.818;2022-09-09T05:40:05;98926.78;;;15.49;100.00
51237;BME280;37312;47.550;18.818;2022-09-09T05:42:32;98925.41;;;15.57;100.00
51237;BME280;37312;47.550;18.818;2022-09-09T05:44:58;98922.16;;;15.60;100.00
51237;BME280;37312;47.550;18.818;2022-09-09T05:47:24;98922.47;;;15.79;100.00
51237;BME280;37312;47.550;18.818;2022-09-09T05:49:50;98921.94;;;15.77;100.00
51237;BME280;37312;47.550;18.818;2022-09-09T05:52:16;98923.25;;;15.84;100.00
51237;BME280;37312;47.550;18.818;2022-09-09T05:54:41;98919.19;;;15.97;100.00
51237;BME280;37312;47.550;18.818;2022-09-09T05:57:08;98919.16;;;16.08;100.00
51237;BME280;37312;47.550;18.818;2022-09-09T05:59:34;98922.97;;;16.12;100.00
51237;BME280;37312;47.550;18.818;2022-09-09T06:02:00;98922.38;;;16.35;100.00
51237;BME280;37312;47.550;18.818;2022-09-09T06:04:26;98926.44;;;16.38;100.00
51237;BME280;37312;47.550;18.818;2022-09-09T06:06:52;98936.75;;;16.41;100.00
51237;BME280;37312;47.550;18.818;2022-09-09T06:09:18;98936.69;;;16.61;100.00
51237;BME280;37312;47.550;18.818;2022-09-09T06:11:43;98939.94;;;16.74;100.00
51237;BME280;37312;47.550;18.818;2022-09-09T06:14:09;98931.50;;;16.80;100.00
51237;BME280;37312;47.550;18.818;2022-09-09T06:16:35;98937.44;;;16.77;100.00
51237;BME280;37312;47.550;18.818;2022-09-09T06:19:03;98943.72;;;16.83;100.00
51237;BME280;37312;47.550;18.818;2022-09-09T06:21:34;98944.81;;;16.87;100.00
51237;BME280;37312;47.550;18.818;2022-09-09T06:24:01;98943.09;;;17.01;100.00
51237;BME280;37312;47.550;18.818;2022-09-09T06:26:32;98941.28;;;17.31;100.00
51237;BME280;37312;47.550;18.818;2022-09-09T06:28:59;98955.06;;;17.45;100.00
51237;BME280;37312;47.550;18.818;2022-09-09T06:31:27;98954.22;;;17.49;100.00
51237;BME280;37312;47.550;18.818;2022-09-09T06:33:57;98962.06;;;17.56;100.00
51237;BME280;37312;47.550;18.818;2022-09-09T06:36:25;98948.63;;;17.75;100.00
51237;BME280;37312;47.550;18.818;2022-09-09T06:38:52;98946.34;;;17.87;100.00
51237;BME280;37312;47.550;18.818;2022-09-09T06:41:19;98945.50;;;17.92;100.00
51237;BME280;37312;47.550;18.818;2022-09-09T06:43:46;98947.09;;;17.98;100.00
51237;BME280;37312;47.550;18.818;2022-09-09T06:46:15;98944.75;;;17.86;100.00
51237;BME280;37312;47.550;18.818;2022-09-09T06:48:42;98955.53;;;17.97;100.00
51237;BME280;37312;47.550;18.818;2022-09-09T06:51:18;98953.47;;;18.12;100.00
51237;BME280;37312;47.550;18.818;2022-09-09T06:53:47;98956.34;;;18.26;100.00
51237;BME280;37312;47.550;18.818;2022-09-09T06:58:47;98960.25;;;18.15;100.00
51237;BME280;37312;47.550;18.818;2022-09-09T07:01:16;98960.31;;;18.10;100.00
51237;BME280;37312;47.550;18.818;2022-09-09T07:03:45;98961.47;;;18.04;100.00
51237;BME280;37312;47.550;18.818;2022-09-09T07:06:17;98966.81;;;17.80;100.00
51237;BME280;37312;47.550;18.818;2022-09-09T07:08:43;98971.13;;;17.91;100.00
51237;BME280;37312;47.550;18.818;2022-09-09T07:11:09;98965.88;;;18.53;100.00
51237;BME280;37312;47.550;18.818;2022-09-09T07:13:36;98962.34;;;19.01;100.00
51237;BME280;37312;47.550;18.818;2022-09-09T07:16:14;98952.44;;;19.29;100.00
51237;BME280;37312;47.550;18.818;2022-09-09T07:18:40;98960.62;;;19.29;100.00
51237;BME280;37312;47.550;18.818;2022-09-09T07:21:10;98977.75;;;19.34;100.00
51237;BME280;37312;47.550;18.818;2022-09-09T07:23:38;98975.22;;;19.95;100.00
51237;BME280;37312;47.550;18.818;2022-09-09T07:26:15;98977.59;;;21.90;100.00
51237;BME280;37312;47.550;18.818;2022-09-09T07:28:42;98976.84;;;23.76;96.15
51237;BME280;37312;47.550;18.818;2022-09-09T07:31:16;98980.88;;;24.98;88.88
51237;BME280;37312;47.550;18.818;2022-09-09T07:33:43;98987.25;;;26.71;78.89
51237;BME280;37312;47.550;18.818;2022-09-09T07:36:13;98996.34;;;26.96;70.85
51237;BME280;37312;47.550;18.818;2022-09-09T07:38:40;98989.53;;;26.23;71.27
51237;BME280;37312;47.550;18.818;2022-09-09T07:41:11;99000.13;;;27.16;71.11
51237;BME280;37312;47.550;18.818;2022-09-09T07:43:39;99000.91;;;27.53;69.43
51237;BME280;37312;47.550;18.818;2022-09-09T07:46:08;98996.31;;;27.08;69.54
51237;BME280;37312;47.550;18.818;2022-09-09T07:48:35;98994.84;;;28.32;63.88
51237;BME280;37312;47.550;18.818;2022-09-09T07:51:10;98994.63;;;28.69;64.34
51237;BME280;37312;47.550;18.818;2022-09-09T07:53:40;98989.66;;;30.20;60.20
51237;BME280;37312;47.550;18.818;2022-09-09T07:56:08;98998.34;;;30.84;54.14
51237;BME280;37312;47.550;18.818;2022-09-09T07:58:38;98989.31;;;30.87;54.55
51237;BME280;37312;47.550;18.818;2022-09-09T08:01:09;98987.34;;;29.28;59.65
51237;BME280;37312;47.550;18.818;2022-09-09T08:03:36;98996.97;;;30.28;55.65
51237;BME280;37312;47.550;18.818;2022-09-09T08:06:07;99001.91;;;31.30;54.13
51237;BME280;37312;47.550;18.818;2022-09-09T08:08:35;99004.81;;;31.98;49.48
51237;BME280;37312;47.550;18.818;2022-09-09T08:11:10;98994.50;;;32.39;52.27
51237;BME280;37312;47.550;18.818;2022-09-09T08:13:38;98997.63;;;32.72;47.65
51237;BME280;37312;47.550;18.818;2022-09-09T08:16:09;98994.09;;;33.30;46.17
51237;BME280;37312;47.550;18.818;2022-09-09T08:18:35;98984.06;;;32.29;47.33
51237;BME280;37312;47.550;18.818;2022-09-09T08:21:10;98991.66;;;31.65;47.97
51237;BME280;37312;47.550;18.818;2022-09-09T08:23:41;98978.22;;;32.41;43.68
51237;BME280;37312;47.550;18.818;2022-09-09T08:26:16;98972.41;;;31.86;46.61
51237;BME280;37312;47.550;18.818;2022-09-09T08:28:43;98986.25;;;32.50;45.61
51237;BME280;37312;47.550;18.818;2022-09-09T08:31:15;98972.53;;;32.31;44.35
51237;BME280;37312;47.550;18.818;2022-09-09T08:33:43;98979.84;;;33.53;42.13
51237;BME280;37312;47.550;18.818;2022-09-09T08:36:14;98984.47;;;32.69;42.67
51237;BME280;37312;47.550;18.818;2022-09-09T08:38:41;98985.78;;;32.41;43.09
51237;BME280;37312;47.550;18.818;2022-09-09T08:44:00;98990.34;;;33.71;40.00
51237;BME280;37312;47.550;18.818;2022-09-09T08:52:20;98999.38;;;34.48;39.79
51237;BME280;37312;47.550;18.818;2022-09-09T08:54:47;99007.31;;;34.10;37.74
51237;BME280;37312;47.550;18.818;2022-09-09T08:57:20;99002.94;;;34.27;35.56
51237;BME280;37312;47.550;18.818;2022-09-09T08:59:47;98994.69;;;33.64;37.43
51237;BME280;37312;47.550;18.818;2022-09-09T09:07:21;98988.19;;;35.38;35.99
51237;BME280;37312;47.550;18.818;2022-09-09T09:09:59;98990.94;;;35.63;35.72
51237;BME280;37312;47.550;18.818;2022-09-09T09:12:31;98993.53;;;36.09;33.89
51237;BME280;37312;47.550;18.818;2022-09-09T09:15:00;98996.78;;;36.67;33.57
51237;BME280;37312;47.550;18.818;2022-09-09T09:17:28;98995.94;;;36.07;33.26
51237;BME280;37312;47.550;18.818;2022-09-09T09:19:58;98997.09;;;36.21;32.80
51237;BME280;37312;47.550;18.818;2022-09-09T09:22:50;99005.25;;;36.57;32.24
51237;BME280;37312;47.550;18.818;2022-09-09T09:25:34;98989.81;;;35.10;32.13
51237;BME280;37312;47.550;18.818;2022-09-09T09:28:12;98982.50;;;35.59;32.55
51237;BME280;37312;47.550;18.818;2022-09-09T09:33:22;98968.22;;;35.25;32.38
51237;BME280;37312;47.550;18.818;2022-09-09T09:35:50;98972.13;;;35.53;31.63
51237;BME280;37312;47.550;18.818;2022-09-09T09:38:21;98968.22;;;35.25;31.87
51237;BME280;37312;47.550;18.818;2022-09-09T09:40:52;98962.25;;;34.94;34.06
51237;BME280;37312;47.550;18.818;2022-09-09T09:43:33;98965.44;;;34.93;32.93
51237;BME280;37312;47.550;18.818;2022-09-09T09:46:00;98957.47;;;34.66;34.83
51237;BME280;37312;47.550;18.818;2022-09-09T09:48:27;98954.22;;;34.46;33.25
51237;BME280;37312;47.550;18.818;2022-09-09T09:51:05;98963.34;;;34.03;33.95
51237;BME280;37312;47.550;18.818;2022-09-09T09:53:36;98964.56;;;33.26;34.55
51237;BME280;37312;47.550;18.818;2022-09-09T09:56:06;98956.84;;;32.15;37.80
51237;BME280;37312;47.550;18.818;2022-09-09T09:58:49;98953.12;;;32.04;38.01
51237;BME280;37312;47.550;18.818;2022-09-09T10:03:54;98959.44;;;30.84;38.32
51237;BME280;37312;47.550;18.818;2022-09-09T10:06:33;98949.87;;;30.58;41.94
51237;BME280;37312;47.550;18.818;2022-09-09T10:09:01;98947.03;;;30.54;41.63
51237;BME280;37312;47.550;18.818;2022-09-09T10:14:21;98945.59;;;29.05;43.58
51237;BME280;37312;47.550;18.818;2022-09-09T10:19:33;98937.66;;;28.40;46.07
51237;BME280;37312;47.550;18.818;2022-09-09T10:22:25;98935.19;;;28.66;47.10
51237;BME280;37312;47.550;18.818;2022-09-09T10:24:59;98934.78;;;29.16;43.24
51237;BME280;37312;47.550;18.818;2022-09-09T10:27:44;98932.22;;;28.91;43.71
51237;BME280;37312;47.550;18.818;2022-09-09T10:30:19;98936.84;;;28.87;45.68
51237;BME280;37312;47.550;18.818;2022-09-09T10:33:10;98939.53;;;28.20;47.89
51237;BME280;37312;47.550;18.818;2022-09-09T10:36:06;98946.91;;;28.00;48.04
51237;BME280;37312;47.550;18.818;2022-09-09T10:38:48;98947.44;;;27.77;48.63
51237;BME280;37312;47.550;18.818;2022-09-09T10:55:06;98948.19;;;26.60;51.17
51237;BME280;37312;47.550;18.818;2022-09-09T10:57:48;98946.81;;;26.08;53.70
51237;BME280;37312;47.550;18.818;2022-09-09T11:00:44;98949.41;;;25.92;51.94
51237;BME280;37312;47.550;18.818;2022-09-09T11:03:28;98946.34;;;26.06;50.73
51237;BME280;37312;47.550;18.818;2022-09-09T11:06:04;98954.00;;;26.34;52.47
51237;BME280;37312;47.550;18.818;2022-09-09T11:08:33;98953.38;;;26.61;49.58
51237;BME280;37312;47.550;18.818;2022-09-09T11:13:38;98953.97;;;26.67;50.73
51237;BME280;37312;47.550;18.818;2022-09-09T11:18:44;98945.09;;;26.98;49.77
51237;BME280;37312;47.550;18.818;2022-09-09T11:21:25;98944.13;;;27.31;47.56
51237;BME280;37312;47.550;18.818;2022-09-09T11:23:57;98945.38;;;27.34;47.90
51237;BME280;37312;47.550;18.818;2022-09-09T11:26:31;98942.69;;;26.85;47.37
51237;BME280;37312;47.550;18.818;2022-09-09T11:29:06;98946.50;;;26.34;48.92
51237;BME280;37312;47.550;18.818;2022-09-09T11:31:52;98939.56;;;26.04;50.24
51237;BME280;37312;47.550;18.818;2022-09-09T11:40:24;98939.72;;;26.19;49.36
51237;BME280;37312;47.550;18.818;2022-09-09T11:43:27;98935.03;;;26.45;48.98
51237;BME280;37312;47.550;18.818;2022-09-09T11:45:54;98926.78;;;26.94;50.50
51237;BME280;37312;47.550;18.818;2022-09-09T11:48:31;98928.97;;;27.25;45.40
51237;BME280;37312;47.550;18.818;2022-09-09T11:51:01;98926.41;;;27.32;45.59
51237;BME280;37312;47.550;18.818;2022-09-09T11:53:28;98931.38;;;27.02;46.98
51237;BME280;37312;47.550;18.818;2022-09-09T11:56:07;98931.81;;;27.04;45.66
51237;BME280;37312;47.550;18.818;2022-09-09T11:58:54;98935.66;;;26.87;46.86
51237;BME280;37312;47.550;18.818;2022-09-09T12:01:34;98923.00;;;26.74;45.54
51237;BME280;37312;47.550;18.818;2022-09-09T12:09:43;98924.13;;;26.48;46.85
51237;BME280;37312;47.550;18.818;2022-09-09T12:19:41;98922.38;;;26.44;47.01
51237;BME280;37312;47.550;18.818;2022-09-09T12:22:35;98927.25;;;26.71;46.20
51237;BME280;37312;47.550;18.818;2022-09-09T12:33:20;98901.69;;;26.74;45.19
51237;BME280;37312;47.550;18.818;2022-09-09T12:35:54;98895.81;;;26.76;44.32
51237;BME280;37312;47.550;18.818;2022-09-09T12:38:40;98905.28;;;26.62;41.53
51237;BME280;37312;47.550;18.818;2022-09-09T12:41:15;98901.44;;;26.79;46.35
51237;BME280;37312;47.550;18.818;2022-09-09T12:43:45;98898.69;;;26.79;43.05
51237;BME280;37312;47.550;18.818;2022-09-09T12:46:22;98899.25;;;26.73;41.70
51237;BME280;37312;47.550;18.818;2022-09-09T12:48:50;98892.59;;;26.61;44.38
51237;BME280;37312;47.550;18.818;2022-09-09T12:51:23;98890.38;;;26.42;42.76
51237;BME280;37312;47.550;18.818;2022-09-09T12:53:51;98879.41;;;26.09;44.29
51237;BME280;37312;47.550;18.818;2022-09-09T12:56:20;98874.91;;;25.92;47.19
51237;BME280;37312;47.550;18.818;2022-09-09T12:58:49;98874.66;;;25.85;47.00
51237;BME280;37312;47.550;18.818;2022-09-09T13:01:27;98871.94;;;25.97;46.22
51237;BME280;37312;47.550;18.818;2022-09-09T13:03:54;98861.03;;;25.80;45.99
51237;BME280;37312;47.550;18.818;2022-09-09T13:06:30;98865.37;;;25.90;45.26
51237;BME280;37312;47.550;18.818;2022-09-09T13:08:58;98854.78;;;25.58;48.73
51237;BME280;37312;47.550;18.818;2022-09-09T13:11:47;98848.88;;;25.48;49.09
51237;BME280;37312;47.550;18.818;2022-09-09T13:14:31;98855.47;;;25.55;48.25
51237;BME280;37312;47.550;18.818;2022-09-09T13:17:02;98853.06;;;25.54;49.13
51237;BME280;37312;47.550;18.818;2022-09-09T13:19:37;98849.66;;;25.36;48.94
51237;BME280;37312;47.550;18.818;2022-09-09T13:22:20;98845.06;;;25.40;48.14
51237;BME280;37312;47.550;18.818;2022-09-09T13:24:46;98838.41;;;25.41;47.00
51237;BME280;37312;47.550;18.818;2022-09-09T13:27:35;98841.31;;;25.57;49.52
51237;BME280;37312;47.550;18.818;2022-09-09T13:30:26;98847.31;;;25.92;47.91
51237;BME280;37312;47.550;18.818;2022-09-09T13:35:27;98855.50;;;26.01;45.67
51237;BME280;37312;47.550;18.818;2022-09-09T13:37:53;98848.03;;;26.02;45.66
51237;BME280;37312;47.550;18.818;2022-09-09T13:40:21;98853.22;;;25.82;46.34
51237;BME280;37312;47.550;18.818;2022-09-09T13:42:50;98848.53;;;25.83;46.08
51237;BME280;37312;47.550;18.818;2022-09-09T13:45:19;98847.84;;;25.86;47.77
51237;BME280;37312;47.550;18.818;2022-09-09T13:47:49;98845.97;;;25.98;48.88
51237;BME280;37312;47.550;18.818;2022-09-09T13:50:23;98831.84;;;26.12;45.63
51237;BME280;37312;47.550;18.818;2022-09-09T13:52:54;98831.03;;;26.24;47.93
51237;BME280;37312;47.550;18.818;2022-09-09T13:55:22;98828.97;;;26.21;44.83
51237;BME280;37312;47.550;18.818;2022-09-09T13:58:00;98830.78;;;26.29;47.66
51237;BME280;37312;47.550;18.818;2022-09-09T14:00:29;98820.09;;;26.40;49.36
51237;BME280;37312;47.550;18.818;2022-09-09T14:02:55;98817.09;;;26.45;43.89
51237;BME280;37312;47.550;18.818;2022-09-09T14:05:22;98805.84;;;26.50;43.46
51237;BME280;37312;47.550;18.818;2022-09-09T14:07:49;98805.59;;;26.31;40.89
51237;BME280;37312;47.550;18.818;2022-09-09T14:10:15;98795.50;;;26.10;41.86
51237;BME280;37312;47.550;18.818;2022-09-09T14:12:41;98794.56;;;26.06;44.66
51237;BME280;37312;47.550;18.818;2022-09-09T14:15:09;98785.12;;;26.19;43.42
51237;BME280;37312;47.550;18.818;2022-09-09T14:17:36;98786.50;;;26.01;44.14
51237;BME280;37312;47.550;18.818;2022-09-09T14:20:03;98780.72;;;25.82;42.74
51237;BME280;37312;47.550;18.818;2022-09-09T14:22:35;98783.38;;;25.78;48.45
51237;BME280;37312;47.550;18.818;2022-09-09T14:25:02;98780.72;;;25.82;44.78
51237;BME280;37312;47.550;18.818;2022-09-09T14:27:28;98776.81;;;25.83;44.16
51237;BME280;37312;47.550;18.818;2022-09-09T14:29:55;98776.34;;;25.80;45.95
51237;BME280;37312;47.550;18.818;2022-09-09T14:32:22;98775.75;;;25.75;44.98
51237;BME280;37312;47.550;18.818;2022-09-09T14:34:48;98779.69;;;25.74;44.43
51237;BME280;37312;47.550;18.818;2022-09-09T14:37:16;98772.44;;;25.69;43.20
51237;BME280;37312;47.550;18.818;2022-09-09T14:39:43;98769.53;;;25.66;44.16
51237;BME280;37312;47.550;18.818;2022-09-09T14:42:14;98777.94;;;25.69;44.32
51237;BME280;37312;47.550;18.818;2022-09-09T14:44:40;98770.38;;;25.78;44.79
51237;BME280;37312;47.550;18.818;2022-09-09T14:47:07;98771.75;;;25.85;44.74
51237;BME280;37312;47.550;18.818;2022-09-09T14:49:36;98774.25;;;25.65;41.99
51237;BME280;37312;47.550;18.818;2022-09-09T14:52:03;98775.28;;;25.61;42.92
51237;BME280;37312;47.550;18.818;2022-09-09T14:54:31;98775.19;;;25.69;46.28
51237;BME280;37312;47.550;18.818;2022-09-09T14:56:58;98784.50;;;25.65;46.87
51237;BME280;37312;47.550;18.818;2022-09-09T14:59:24;98789.66;;;25.66;45.79
51237;BME280;37312;47.550;18.818;2022-09-09T15:01:50;98789.59;;;25.99;45.84
51237;BME280;37312;47.550;18.818;2022-09-09T15:04:16;98785.38;;;26.14;41.74
51237;BME280;37312;47.550;18.818;2022-09-09T15:06:45;98788.81;;;26.24;41.33